sensor_id;sensor_type;location;lat;lon;timestamp;temperature;humidity
46378;DHT22;32083;47.360;9.650;2023-02-28T00:00:51;0.80;99.90
46378;DHT22;32083;47.360;9.650;2023-02-28T00:03:19;0.60;99.90
46378;DHT22;32083;47.360;9.650;2023-02-28T00:05:49;0.60;99.90
46378;DHT22;32083;47.360;9.650;2023-02-28T00:08:16;0.60;99.90
46378;DHT22;32083;47.360;9.650;2023-02-28T00:10:50;0.60;99.90
46378;DHT22;32083;47.360;9.650;2023-02-28T00:13:16;0.50;99.90
46378;DHT22;32083;47.360;9.650;2023-02-28T00:15:57;0.50;99.90
46378;DHT22;32083;47.360;9.650;2023-02-28T00:18:37;0.50;99.90
46378;DHT22;32083;47.360;9.650;2023-02-28T00:21:27;0.40;99.90
46378;DHT22;32083;47.360;9.650;2023-02-28T00:23:57;0.20;99.90
46378;DHT22;32083;47.360;9.650;2023-02-28T00:26:27;0.20;99.90
46378;DHT22;32083;47.360;9.650;2023-02-28T00:28:54;0.20;99.90
46378;DHT22;32083;47.360;9.650;2023-02-28T00:31:34;0.20;99.90
46378;DHT22;32083;47.360;9.650;2023-02-28T00:34:02;0.10;99.90
46378;DHT22;32083;47.360;9.650;2023-02-28T00:36:29;0.10;99.90
46378;DHT22;32083;47.360;9.650;2023-02-28T00:39:07;0.10;99.90
46378;DHT22;32083;47.360;9.650;2023-02-28T00:41:34;0.00;99.90
46378;DHT22;32083;47.360;9.650;2023-02-28T00:44:04;0.00;99.90
46378;DHT22;32083;47.360;9.650;2023-02-28T00:46:41;0.00;99.90
46378;DHT22;32083;47.360;9.650;2023-02-28T00:51:39;0.00;99.90
46378;DHT22;32083;47.360;9.650;2023-02-28T00:54:06;0.00;99.90
46378;DHT22;32083;47.360;9.650;2023-02-28T00:56:33;0.00;99.90
46378;DHT22;32083;47.360;9.650;2023-02-28T00:58:58;0.00;99.90
46378;DHT22;32083;47.360;9.650;2023-02-28T01:01:25;0.00;99.90
46378;DHT22;32083;47.360;9.650;2023-02-28T01:03:55;-0.10;99.90
46378;DHT22;32083;47.360;9.650;2023-02-28T01:06:31;0.00;99.90
46378;DHT22;32083;47.360;9.650;2023-02-28T01:08:57;0.00;99.90
46378;DHT22;32083;47.360;9.650;2023-02-28T01:11:25;0.00;99.90
46378;DHT22;32083;47.360;9.650;2023-02-28T01:14:04;0.10;99.90
46378;DHT22;32083;47.360;9.650;2023-02-28T01:16:51;0.10;99.90
46378;DHT22;32083;47.360;9.650;2023-02-28T01:19:19;0.10;99.90
46378;DHT22;32083;47.360;9.650;2023-02-28T01:21:50;0.10;99.90
46378;DHT22;32083;47.360;9.650;2023-02-28T01:24:21;0.10;99.90
46378;DHT22;32083;47.360;9.650;2023-02-28T01:27:04;-0.10;99.90
46378;DHT22;32083;47.360;9.650;2023-02-28T01:29:36;-0.10;99.90
46378;DHT22;32083;47.360;9.650;2023-02-28T01:32:26;-0.20;99.90
46378;DHT22;32083;47.360;9.650;2023-02-28T01:35:01;-0.10;99.90
46378;DHT22;32083;47.360;9.650;2023-02-28T01:37:27;-0.20;99.90
46378;DHT22;32083;47.360;9.650;2023-02-28T01:39:55;-0.20;99.90
46378;DHT22;32083;47.360;9.650;2023-02-28T01:42:22;-0.20;99.90
46378;DHT22;32083;47.360;9.650;2023-02-28T01:47:44;-0.10;99.90
46378;DHT22;32083;47.360;9.650;2023-02-28T01:50:37;-0.20;99.90
46378;DHT22;32083;47.360;9.650;2023-02-28T01:53:14;-0.10;99.90
46378;DHT22;32083;47.360;9.650;2023-02-28T01:55:47;-0.10;99.90
46378;DHT22;32083;47.360;9.650;2023-02-28T01:58:14;-0.20;99.90
46378;DHT22;32083;47.360;9.650;2023-02-28T02:00:50;-0.20;99.90
46378;DHT22;32083;47.360;9.650;2023-02-28T02:04:08;-0.20;99.90
46378;DHT22;32083;47.360;9.650;2023-02-28T02:07:01;-0.20;99.90
46378;DHT22;32083;47.360;9.650;2023-02-28T02:09:29;-0.20;99.90
46378;DHT22;32083;47.360;9.650;2023-02-28T02:15:16;-0.30;99.90
46378;DHT22;32083;47.360;9.650;2023-02-28T02:18:27;-0.30;99.90
46378;DHT22;32083;47.360;9.650;2023-02-28T02:38:35;-0.50;99.90
46378;DHT22;32083;47.360;9.650;2023-02-28T02:44:04;-0.50;99.90
46378;DHT22;32083;47.360;9.650;2023-02-28T02:46:43;-0.50;99.90
46378;DHT22;32083;47.360;9.650;2023-02-28T02:49:22;-0.50;99.90
46378;DHT22;32083;47.360;9.650;2023-02-28T02:51:53;-0.40;99.90
46378;DHT22;32083;47.360;9.650;2023-02-28T02:54:33;-0.50;99.90
46378;DHT22;32083;47.360;9.650;2023-02-28T02:57:13;-0.40;99.90
46378;DHT22;32083;47.360;9.650;2023-02-28T02:59:43;-0.50;99.90
46378;DHT22;32083;47.360;9.650;2023-02-28T03:02:22;-0.50;99.90
46378;DHT22;32083;47.360;9.650;2023-02-28T03:04:52;-0.60;99.90
46378;DHT22;32083;47.360;9.650;2023-02-28T03:07:23;-0.50;99.90
46378;DHT22;32083;47.360;9.650;2023-02-28T03:09:55;-0.70;99.90
46378;DHT22;32083;47.360;9.650;2023-02-28T03:13:00;-0.70;99.90
46378;DHT22;32083;47.360;9.650;2023-02-28T03:18:48;-0.60;99.90
46378;DHT22;32083;47.360;9.650;2023-02-28T03:21:40;-0.60;99.90
46378;DHT22;32083;47.360;9.650;2023-02-28T03:31:01;-0.50;99.90
46378;DHT22;32083;47.360;9.650;2023-02-28T03:33:35;-0.50;99.90
46378;DHT22;32083;47.360;9.650;2023-02-28T03:38:33;-0.60;99.90
46378;DHT22;32083;47.360;9.650;2023-02-28T03:44:49;-0.60;99.90
46378;DHT22;32083;47.360;9.650;2023-02-28T03:50:37;-0.70;99.90
46378;DHT22;32083;47.360;9.650;2023-02-28T03:53:27;-0.80;99.90
46378;DHT22;32083;47.360;9.650;2023-02-28T03:56:26;-0.80;99.90
46378;DHT22;32083;47.360;9.650;2023-02-28T04:01:45;-0.70;99.90
46378;DHT22;32083;47.360;9.650;2023-02-28T04:04:14;-0.70;99.90
46378;DHT22;32083;47.360;9.650;2023-02-28T04:06:41;-0.70;99.90
46378;DHT22;32083;47.360;9.650;2023-02-28T04:09:15;-0.70;99.90
46378;DHT22;32083;47.360;9.650;2023-02-28T04:11:53;-0.70;99.90
46378;DHT22;32083;47.360;9.650;2023-02-28T04:14:23;-0.70;99.90
46378;DHT22;32083;47.360;9.650;2023-02-28T04:16:51;-0.70;99.90
46378;DHT22;32083;47.360;9.650;2023-02-28T04:19:28;-0.70;99.90
46378;DHT22;32083;47.360;9.650;2023-02-28T04:22:02;-0.70;99.90
46378;DHT22;32083;47.360;9.650;2023-02-28T04:24:34;-0.60;99.90
46378;DHT22;32083;47.360;9.650;2023-02-28T04:27:26;-0.60;99.90
46378;DHT22;32083;47.360;9.650;2023-02-28T04:29:53;-0.60;99.90
46378;DHT22;32083;47.360;9.650;2023-02-28T04:32:22;-0.60;99.90
46378;DHT22;32083;47.360;9.650;2023-02-28T04:35:17;-0.60;99.90
46378;DHT22;32083;47.360;9.650;2023-02-28T04:37:47;-0.70;99.90
46378;DHT22;32083;47.360;9.650;2023-02-28T04:40:21;-0.70;99.90
46378;DHT22;32083;47.360;9.650;2023-02-28T04:42:50;-0.70;99.90
46378;DHT22;32083;47.360;9.650;2023-02-28T04:45:24;-0.60;99.90
46378;DHT22;32083;47.360;9.650;2023-02-28T04:47:55;-0.70;99.90
46378;DHT22;32083;47.360;9.650;2023-02-28T04:50:26;-0.70;99.90
46378;DHT22;32083;47.360;9.650;2023-02-28T04:52:59;-0.70;99.90
46378;DHT22;32083;47.360;9.650;2023-02-28T04:55:34;-0.80;99.90
46378;DHT22;32083;47.360;9.650;2023-02-28T04:58:04;-0.70;99.90
46378;DHT22;32083;47.360;9.650;2023-02-28T05:01:01;-0.70;99.90
46378;DHT22;32083;47.360;9.650;2023-02-28T05:03:30;-0.60;99.90
46378;DHT22;32083;47.360;9.650;2023-02-28T05:05:56;-0.60;99.90
46378;DHT22;32083;47.360;9.650;2023-02-28T05:08:26;-0.70;99.90
46378;DHT22;32083;47.360;9.650;2023-02-28T05:10:52;-0.60;99.90
46378;DHT22;32083;47.360;9.650;2023-02-28T05:13:18;-0.60;99.90
46378;DHT22;32083;47.360;9.650;2023-02-28T05:15:45;-0.60;99.90
46378;DHT22;32083;47.360;9.650;2023-02-28T05:18:11;-0.50;99.90
46378;DHT22;32083;47.360;9.650;2023-02-28T05:20:47;-0.50;99.90
46378;DHT22;32083;47.360;9.650;2023-02-28T05:23:35;-0.60;99.90
46378;DHT22;32083;47.360;9.650;2023-02-28T05:26:04;-0.60;99.90
46378;DHT22;32083;47.360;9.650;2023-02-28T05:28:39;-0.60;99.90
46378;DHT22;32083;47.360;9.650;2023-02-28T05:31:05;-0.60;99.90
46378;DHT22;32083;47.360;9.650;2023-02-28T05:33:35;-0.70;99.90
46378;DHT22;32083;47.360;9.650;2023-02-28T05:36:02;-0.70;99.90
46378;DHT22;32083;47.360;9.650;2023-02-28T05:38:52;-0.70;99.90
46378;DHT22;32083;47.360;9.650;2023-02-28T05:41:43;-0.70;99.90
46378;DHT22;32083;47.360;9.650;2023-02-28T05:44:10;-0.70;99.90
46378;DHT22;32083;47.360;9.650;2023-02-28T05:46:36;-0.70;99.90
46378;DHT22;32083;47.360;9.650;2023-02-28T05:49:02;-0.70;99.90
46378;DHT22;32083;47.360;9.650;2023-02-28T05:51:29;-0.70;99.90
46378;DHT22;32083;47.360;9.650;2023-02-28T05:53:57;-0.80;99.90
46378;DHT22;32083;47.360;9.650;2023-02-28T05:56:23;-0.80;99.90
46378;DHT22;32083;47.360;9.650;2023-02-28T05:58:49;-0.80;99.90
46378;DHT22;32083;47.360;9.650;2023-02-28T06:03:47;-0.90;99.90
46378;DHT22;32083;47.360;9.650;2023-02-28T06:06:13;-0.80;99.90
46378;DHT22;32083;47.360;9.650;2023-02-28T06:08:39;-0.80;99.90
46378;DHT22;32083;47.360;9.650;2023-02-28T06:11:05;-0.80;99.90
46378;DHT22;32083;47.360;9.650;2023-02-28T06:13:32;-0.70;99.90
46378;DHT22;32083;47.360;9.650;2023-02-28T06:16:01;-0.70;99.90
46378;DHT22;32083;47.360;9.650;2023-02-28T06:18:27;-0.80;99.90
46378;DHT22;32083;47.360;9.650;2023-02-28T06:20:56;-0.80;99.90
46378;DHT22;32083;47.360;9.650;2023-02-28T06:23:22;-0.80;99.90
46378;DHT22;32083;47.360;9.650;2023-02-28T06:25:48;-0.80;99.90
46378;DHT22;32083;47.360;9.650;2023-02-28T06:28:15;-0.80;99.90
46378;DHT22;32083;47.360;9.650;2023-02-28T06:30:41;-0.80;99.90
46378;DHT22;32083;47.360;9.650;2023-02-28T06:33:07;-0.80;99.90
46378;DHT22;32083;47.360;9.650;2023-02-28T06:35:33;-0.80;99.90
46378;DHT22;32083;47.360;9.650;2023-02-28T06:37:59;-0.80;99.90
46378;DHT22;32083;47.360;9.650;2023-02-28T06:40:25;-0.80;99.90
46378;DHT22;32083;47.360;9.650;2023-02-28T06:42:52;-0.80;99.90
46378;DHT22;32083;47.360;9.650;2023-02-28T06:45:18;-0.70;99.90
46378;DHT22;32083;47.360;9.650;2023-02-28T06:47:44;-0.80;99.90
46378;DHT22;32083;47.360;9.650;2023-02-28T06:50:12;-0.80;99.90
46378;DHT22;32083;47.360;9.650;2023-02-28T06:52:38;-0.80;99.90
46378;DHT22;32083;47.360;9.650;2023-02-28T06:55:06;-0.70;99.90
46378;DHT22;32083;47.360;9.650;2023-02-28T06:57:33;-0.60;99.90
46378;DHT22;32083;47.360;9.650;2023-02-28T07:00:01;-0.60;99.90
46378;DHT22;32083;47.360;9.650;2023-02-28T07:02:28;-0.60;99.90
46378;DHT22;32083;47.360;9.650;2023-02-28T07:04:54;-0.50;99.90
46378;DHT22;32083;47.360;9.650;2023-02-28T07:07:21;-0.50;99.90
46378;DHT22;32083;47.360;9.650;2023-02-28T07:09:46;-0.50;99.90
46378;DHT22;32083;47.360;9.650;2023-02-28T07:12:12;-0.40;99.90
46378;DHT22;32083;47.360;9.650;2023-02-28T07:14:38;-0.40;99.90
46378;DHT22;32083;47.360;9.650;2023-02-28T07:17:07;-0.40;99.90
46378;DHT22;32083;47.360;9.650;2023-02-28T07:19:33;-0.30;99.90
46378;DHT22;32083;47.360;9.650;2023-02-28T07:21:59;-0.40;99.90
46378;DHT22;32083;47.360;9.650;2023-02-28T07:24:27;-0.40;99.90
46378;DHT22;32083;47.360;9.650;2023-02-28T07:26:54;-0.40;99.90
46378;DHT22;32083;47.360;9.650;2023-02-28T07:29:20;-0.40;99.90
46378;DHT22;32083;47.360;9.650;2023-02-28T07:31:46;-0.40;99.90
46378;DHT22;32083;47.360;9.650;2023-02-28T07:34:13;-0.40;99.90
46378;DHT22;32083;47.360;9.650;2023-02-28T07:36:39;-0.40;99.90
46378;DHT22;32083;47.360;9.650;2023-02-28T07:39:05;-0.40;99.90
46378;DHT22;32083;47.360;9.650;2023-02-28T07:41:32;-0.40;99.90
46378;DHT22;32083;47.360;9.650;2023-02-28T07:43:59;-0.40;99.90
46378;DHT22;32083;47.360;9.650;2023-02-28T07:46:26;-0.40;99.90
46378;DHT22;32083;47.360;9.650;2023-02-28T07:48:52;-0.40;99.90
46378;DHT22;32083;47.360;9.650;2023-02-28T07:51:21;-0.30;99.90
46378;DHT22;32083;47.360;9.650;2023-02-28T07:53:47;-0.20;99.90
46378;DHT22;32083;47.360;9.650;2023-02-28T07:56:14;-0.10;99.90
46378;DHT22;32083;47.360;9.650;2023-02-28T07:58:40;-0.20;99.90
46378;DHT22;32083;47.360;9.650;2023-02-28T08:01:08;-0.10;99.90
46378;DHT22;32083;47.360;9.650;2023-02-28T08:03:34;-0.10;99.90
46378;DHT22;32083;47.360;9.650;2023-02-28T08:06:02;-0.10;99.90
46378;DHT22;32083;47.360;9.650;2023-02-28T08:08:28;-0.10;99.90
46378;DHT22;32083;47.360;9.650;2023-02-28T08:11:01;-0.10;99.90
46378;DHT22;32083;47.360;9.650;2023-02-28T08:13:29;-0.10;99.90
46378;DHT22;32083;47.360;9.650;2023-02-28T08:15:56;0.00;99.90
46378;DHT22;32083;47.360;9.650;2023-02-28T08:18:23;0.00;99.90
46378;DHT22;32083;47.360;9.650;2023-02-28T08:20:49;-0.10;99.90
46378;DHT22;32083;47.360;9.650;2023-02-28T08:23:15;0.10;99.90
46378;DHT22;32083;47.360;9.650;2023-02-28T08:25:41;0.10;99.90
46378;DHT22;32083;47.360;9.650;2023-02-28T08:28:07;0.10;99.90
46378;DHT22;32083;47.360;9.650;2023-02-28T08:30:33;0.10;99.90
46378;DHT22;32083;47.360;9.650;2023-02-28T08:32:59;-0.10;99.90
46378;DHT22;32083;47.360;9.650;2023-02-28T08:35:27;0.00;99.90
46378;DHT22;32083;47.360;9.650;2023-02-28T08:37:53;0.10;99.90
46378;DHT22;32083;47.360;9.650;2023-02-28T08:40:19;0.20;99.90
46378;DHT22;32083;47.360;9.650;2023-02-28T08:42:45;0.30;99.90
46378;DHT22;32083;47.360;9.650;2023-02-28T08:45:13;0.40;99.90
46378;DHT22;32083;47.360;9.650;2023-02-28T08:47:39;0.40;99.90
46378;DHT22;32083;47.360;9.650;2023-02-28T08:50:06;0.50;99.90
46378;DHT22;32083;47.360;9.650;2023-02-28T08:52:32;0.40;99.90
46378;DHT22;32083;47.360;9.650;2023-02-28T08:54:58;0.40;99.90
46378;DHT22;32083;47.360;9.650;2023-02-28T08:57:24;0.60;99.90
46378;DHT22;32083;47.360;9.650;2023-02-28T08:59:53;0.60;99.90
46378;DHT22;32083;47.360;9.650;2023-02-28T09:02:19;0.50;99.90
46378;DHT22;32083;47.360;9.650;2023-02-28T09:04:45;0.70;99.90
46378;DHT22;32083;47.360;9.650;2023-02-28T09:07:12;0.70;99.90
46378;DHT22;32083;47.360;9.650;2023-02-28T09:09:38;0.80;99.90
46378;DHT22;32083;47.360;9.650;2023-02-28T09:12:23;0.80;99.90
46378;DHT22;32083;47.360;9.650;2023-02-28T09:14:50;0.90;99.90
46378;DHT22;32083;47.360;9.650;2023-02-28T09:17:16;0.70;99.90
46378;DHT22;32083;47.360;9.650;2023-02-28T09:19:43;0.80;99.90
46378;DHT22;32083;47.360;9.650;2023-02-28T09:22:10;0.80;99.90
46378;DHT22;32083;47.360;9.650;2023-02-28T09:24:37;0.90;99.90
46378;DHT22;32083;47.360;9.650;2023-02-28T09:27:03;1.10;99.90
46378;DHT22;32083;47.360;9.650;2023-02-28T09:29:31;1.10;99.90
46378;DHT22;32083;47.360;9.650;2023-02-28T09:31:57;1.20;99.90
46378;DHT22;32083;47.360;9.650;2023-02-28T09:34:26;1.30;99.90
46378;DHT22;32083;47.360;9.650;2023-02-28T09:36:53;1.40;99.90
46378;DHT22;32083;47.360;9.650;2023-02-28T09:39:21;1.50;99.90
46378;DHT22;32083;47.360;9.650;2023-02-28T09:41:51;1.40;99.50
46378;DHT22;32083;47.360;9.650;2023-02-28T09:44:38;1.30;99.10
46378;DHT22;32083;47.360;9.650;2023-02-28T09:47:27;1.10;99.20
46378;DHT22;32083;47.360;9.650;2023-02-28T09:49:57;1.30;99.10
46378;DHT22;32083;47.360;9.650;2023-02-28T09:52:32;1.30;99.00
46378;DHT22;32083;47.360;9.650;2023-02-28T09:57:45;1.40;98.80
46378;DHT22;32083;47.360;9.650;2023-02-28T10:00:17;1.50;98.50
46378;DHT22;32083;47.360;9.650;2023-02-28T10:03:03;1.50;99.20
46378;DHT22;32083;47.360;9.650;2023-02-28T10:05:41;1.60;98.70
46378;DHT22;32083;47.360;9.650;2023-02-28T10:08:36;1.80;98.90
46378;DHT22;32083;47.360;9.650;2023-02-28T10:11:09;1.90;99.10
46378;DHT22;32083;47.360;9.650;2023-02-28T10:14:01;1.70;98.40
46378;DHT22;32083;47.360;9.650;2023-02-28T10:16:40;1.90;99.10
46378;DHT22;32083;47.360;9.650;2023-02-28T10:22:03;2.10;97.80
46378;DHT22;32083;47.360;9.650;2023-02-28T10:27:29;2.00;98.00
46378;DHT22;32083;47.360;9.650;2023-02-28T10:29:57;2.10;98.30
46378;DHT22;32083;47.360;9.650;2023-02-28T10:32:27;2.20;98.80
46378;DHT22;32083;47.360;9.650;2023-02-28T10:35:15;2.00;97.40
46378;DHT22;32083;47.360;9.650;2023-02-28T10:37:43;1.90;97.60
46378;DHT22;32083;47.360;9.650;2023-02-28T10:45:26;2.00;98.50
46378;DHT22;32083;47.360;9.650;2023-02-28T10:47:55;2.00;97.80
46378;DHT22;32083;47.360;9.650;2023-02-28T11:15:36;2.40;98.60
46378;DHT22;32083;47.360;9.650;2023-02-28T11:18:30;2.40;98.30
46378;DHT22;32083;47.360;9.650;2023-02-28T11:20:59;2.50;98.00
46378;DHT22;32083;47.360;9.650;2023-02-28T11:23:28;2.60;98.10
46378;DHT22;32083;47.360;9.650;2023-02-28T11:25:58;2.50;97.90
46378;DHT22;32083;47.360;9.650;2023-02-28T11:31:15;2.60;98.30
46378;DHT22;32083;47.360;9.650;2023-02-28T11:33:51;2.60;98.80
46378;DHT22;32083;47.360;9.650;2023-02-28T11:36:29;2.60;98.90
46378;DHT22;32083;47.360;9.650;2023-02-28T11:39:10;2.60;99.10
46378;DHT22;32083;47.360;9.650;2023-02-28T11:45:01;2.70;99.10
46378;DHT22;32083;47.360;9.650;2023-02-28T11:50:46;2.70;98.10
46378;DHT22;32083;47.360;9.650;2023-02-28T11:55:54;2.70;98.50
46378;DHT22;32083;47.360;9.650;2023-02-28T12:04:31;2.60;97.80
46378;DHT22;32083;47.360;9.650;2023-02-28T12:12:50;2.60;97.90
46378;DHT22;32083;47.360;9.650;2023-02-28T12:24:08;2.80;98.30
46378;DHT22;32083;47.360;9.650;2023-02-28T12:26:45;2.80;98.10
46378;DHT22;32083;47.360;9.650;2023-02-28T12:29:24;2.80;97.80
46378;DHT22;32083;47.360;9.650;2023-02-28T12:32:04;2.90;98.10
46378;DHT22;32083;47.360;9.650;2023-02-28T12:34:38;3.00;98.00
46378;DHT22;32083;47.360;9.650;2023-02-28T12:37:09;3.10;97.50
46378;DHT22;32083;47.360;9.650;2023-02-28T12:39:40;2.90;96.80
46378;DHT22;32083;47.360;9.650;2023-02-28T12:42:30;3.00;98.10
46378;DHT22;32083;47.360;9.650;2023-02-28T12:45:02;3.10;97.90
46378;DHT22;32083;47.360;9.650;2023-02-28T12:47:29;3.10;97.50
46378;DHT22;32083;47.360;9.650;2023-02-28T12:50:05;2.90;96.90
46378;DHT22;32083;47.360;9.650;2023-02-28T12:55:24;2.90;97.20
46378;DHT22;32083;47.360;9.650;2023-02-28T13:00:38;3.10;98.20
46378;DHT22;32083;47.360;9.650;2023-02-28T13:06:10;3.20;96.80
46378;DHT22;32083;47.360;9.650;2023-02-28T13:09:02;3.30;97.00
46378;DHT22;32083;47.360;9.650;2023-02-28T13:14:29;3.10;96.60
46378;DHT22;32083;47.360;9.650;2023-02-28T13:19:26;3.60;97.00
46378;DHT22;32083;47.360;9.650;2023-02-28T13:21:53;3.40;96.70
46378;DHT22;32083;47.360;9.650;2023-02-28T13:24:50;3.40;95.90
46378;DHT22;32083;47.360;9.650;2023-02-28T13:29:52;3.50;96.10
46378;DHT22;32083;47.360;9.650;2023-02-28T13:50:27;3.90;97.00
46378;DHT22;32083;47.360;9.650;2023-02-28T13:52:57;3.60;96.20
46378;DHT22;32083;47.360;9.650;2023-02-28T13:58:36;3.80;96.20
46378;DHT22;32083;47.360;9.650;2023-02-28T14:06:23;3.60;95.60
46378;DHT22;32083;47.360;9.650;2023-02-28T14:15:34;3.80;96.30
46378;DHT22;32083;47.360;9.650;2023-02-28T14:20:48;3.90;96.70
46378;DHT22;32083;47.360;9.650;2023-02-28T14:28:47;4.00;97.30
46378;DHT22;32083;47.360;9.650;2023-02-28T14:31:29;3.90;96.90
46378;DHT22;32083;47.360;9.650;2023-02-28T14:36:41;4.20;98.20
46378;DHT22;32083;47.360;9.650;2023-02-28T14:39:16;4.10;96.80
46378;DHT22;32083;47.360;9.650;2023-02-28T14:41:44;4.30;98.10
46378;DHT22;32083;47.360;9.650;2023-02-28T14:44:20;4.20;98.30
46378;DHT22;32083;47.360;9.650;2023-02-28T14:47:00;4.00;96.90
46378;DHT22;32083;47.360;9.650;2023-02-28T14:49:37;3.60;97.00
46378;DHT22;32083;47.360;9.650;2023-02-28T14:52:24;3.50;97.20
46378;DHT22;32083;47.360;9.650;2023-02-28T14:54:55;3.40;98.20
46378;DHT22;32083;47.360;9.650;2023-02-28T14:57:27;3.60;98.30
46378;DHT22;32083;47.360;9.650;2023-02-28T15:00:03;3.50;97.80
46378;DHT22;32083;47.360;9.650;2023-02-28T15:02:37;3.70;99.50
46378;DHT22;32083;47.360;9.650;2023-02-28T15:07:36;3.60;98.50
46378;DHT22;32083;47.360;9.650;2023-02-28T15:10:30;3.50;98.60
46378;DHT22;32083;47.360;9.650;2023-02-28T15:12:57;3.60;99.30
46378;DHT22;32083;47.360;9.650;2023-02-28T15:15:35;3.50;98.70
46378;DHT22;32083;47.360;9.650;2023-02-28T15:18:05;3.60;99.10
46378;DHT22;32083;47.360;9.650;2023-02-28T15:20:33;3.60;99.90
46378;DHT22;32083;47.360;9.650;2023-02-28T15:23:00;3.60;99.60
46378;DHT22;32083;47.360;9.650;2023-02-28T15:25:26;3.60;99.90
46378;DHT22;32083;47.360;9.650;2023-02-28T15:27:55;3.50;99.30
46378;DHT22;32083;47.360;9.650;2023-02-28T15:30:29;3.50;99.40
46378;DHT22;32083;47.360;9.650;2023-02-28T15:35:30;3.20;98.50
46378;DHT22;32083;47.360;9.650;2023-02-28T15:38:00;3.10;98.50
46378;DHT22;32083;47.360;9.650;2023-02-28T15:40:30;3.20;98.80
46378;DHT22;32083;47.360;9.650;2023-02-28T15:45:34;3.30;98.60
46378;DHT22;32083;47.360;9.650;2023-02-28T15:48:05;3.30;99.10
46378;DHT22;32083;47.360;9.650;2023-02-28T15:50:31;3.20;99.40
46378;DHT22;32083;47.360;9.650;2023-02-28T15:52:57;2.90;98.30
46378;DHT22;32083;47.360;9.650;2023-02-28T15:55:28;2.90;99.90
46378;DHT22;32083;47.360;9.650;2023-02-28T15:57:57;2.90;99.60
46378;DHT22;32083;47.360;9.650;2023-02-28T16:00:28;3.00;99.90
46378;DHT22;32083;47.360;9.650;2023-02-28T16:02:54;3.00;99.20
46378;DHT22;32083;47.360;9.650;2023-02-28T16:05:24;3.10;99.90
46378;DHT22;32083;47.360;9.650;2023-02-28T16:07:58;3.10;99.70
46378;DHT22;32083;47.360;9.650;2023-02-28T16:10:26;3.10;99.90
46378;DHT22;32083;47.360;9.650;2023-02-28T16:12:54;3.10;99.90
46378;DHT22;32083;47.360;9.650;2023-02-28T16:15:27;3.00;99.50
46378;DHT22;32083;47.360;9.650;2023-02-28T16:17:55;3.00;99.90
46378;DHT22;32083;47.360;9.650;2023-02-28T16:20:27;3.10;99.90
46378;DHT22;32083;47.360;9.650;2023-02-28T16:22:53;2.90;99.30
46378;DHT22;32083;47.360;9.650;2023-02-28T16:25:23;2.80;99.60
46378;DHT22;32083;47.360;9.650;2023-02-28T16:27:52;2.90;99.90
46378;DHT22;32083;47.360;9.650;2023-02-28T16:30:22;2.90;99.90
46378;DHT22;32083;47.360;9.650;2023-02-28T16:32:50;3.00;99.90
46378;DHT22;32083;47.360;9.650;2023-02-28T16:35:17;3.00;99.80
46378;DHT22;32083;47.360;9.650;2023-02-28T16:37:44;2.90;99.90
46378;DHT22;32083;47.360;9.650;2023-02-28T16:40:36;2.80;99.90
46378;DHT22;32083;47.360;9.650;2023-02-28T16:43:43;2.70;99.50
46378;DHT22;32083;47.360;9.650;2023-02-28T16:46:41;2.60;99.50
46378;DHT22;32083;47.360;9.650;2023-02-28T16:50:12;2.70;99.90
46378;DHT22;32083;47.360;9.650;2023-02-28T16:53:28;2.60;99.90
46378;DHT22;32083;47.360;9.650;2023-02-28T16:59:35;2.50;99.90
46378;DHT22;32083;47.360;9.650;2023-02-28T17:02:24;2.60;99.90
46378;DHT22;32083;47.360;9.650;2023-02-28T17:05:19;2.50;99.90
46378;DHT22;32083;47.360;9.650;2023-02-28T17:10:47;2.60;99.90
46378;DHT22;32083;47.360;9.650;2023-02-28T17:13:38;2.60;99.90
46378;DHT22;32083;47.360;9.650;2023-02-28T17:19:28;2.50;99.90
46378;DHT22;32083;47.360;9.650;2023-02-28T17:26:17;2.40;99.90
46378;DHT22;32083;47.360;9.650;2023-02-28T17:36:08;2.20;99.90
46378;DHT22;32083;47.360;9.650;2023-02-28T17:38:53;2.20;99.90
46378;DHT22;32083;47.360;9.650;2023-02-28T17:58:53;2.20;99.90
46378;DHT22;32083;47.360;9.650;2023-02-28T18:01:20;2.00;99.90
46378;DHT22;32083;47.360;9.650;2023-02-28T18:03:50;2.00;99.90
46378;DHT22;32083;47.360;9.650;2023-02-28T18:06:43;2.10;99.90
46378;DHT22;32083;47.360;9.650;2023-02-28T18:09:13;2.00;99.90
46378;DHT22;32083;47.360;9.650;2023-02-28T18:11:39;2.00;99.90
46378;DHT22;32083;47.360;9.650;2023-02-28T18:14:10;2.00;99.90
46378;DHT22;32083;47.360;9.650;2023-02-28T18:16:37;2.00;99.90
46378;DHT22;32083;47.360;9.650;2023-02-28T18:19:06;1.90;99.90
46378;DHT22;32083;47.360;9.650;2023-02-28T18:21:40;1.90;99.90
46378;DHT22;32083;47.360;9.650;2023-02-28T18:24:09;1.80;99.90
46378;DHT22;32083;47.360;9.650;2023-02-28T18:26:36;1.80;99.90
46378;DHT22;32083;47.360;9.650;2023-02-28T18:29:06;1.80;99.90
46378;DHT22;32083;47.360;9.650;2023-02-28T18:31:33;1.70;99.90
46378;DHT22;32083;47.360;9.650;2023-02-28T18:33:59;1.70;99.90
46378;DHT22;32083;47.360;9.650;2023-02-28T18:36:26;1.70;99.90
46378;DHT22;32083;47.360;9.650;2023-02-28T18:38:55;1.70;99.90
46378;DHT22;32083;47.360;9.650;2023-02-28T18:41:21;1.70;99.90
46378;DHT22;32083;47.360;9.650;2023-02-28T18:43:47;1.70;99.90
46378;DHT22;32083;47.360;9.650;2023-02-28T18:46:16;1.80;99.90
46378;DHT22;32083;47.360;9.650;2023-02-28T18:48:42;1.80;99.90
46378;DHT22;32083;47.360;9.650;2023-02-28T18:51:18;1.70;99.90
46378;DHT22;32083;47.360;9.650;2023-02-28T18:53:44;1.70;99.90
46378;DHT22;32083;47.360;9.650;2023-02-28T18:56:16;1.70;99.90
46378;DHT22;32083;47.360;9.650;2023-02-28T18:58:43;1.80;99.90
46378;DHT22;32083;47.360;9.650;2023-02-28T19:01:27;1.80;99.90
46378;DHT22;32083;47.360;9.650;2023-02-28T19:03:56;1.80;99.90
46378;DHT22;32083;47.360;9.650;2023-02-28T19:06:29;1.60;99.90
46378;DHT22;32083;47.360;9.650;2023-02-28T19:09:09;1.60;99.90
46378;DHT22;32083;47.360;9.650;2023-02-28T19:11:35;1.60;99.90
46378;DHT22;32083;47.360;9.650;2023-02-28T19:14:04;1.70;99.90
46378;DHT22;32083;47.360;9.650;2023-02-28T19:16:30;1.70;99.90
46378;DHT22;32083;47.360;9.650;2023-02-28T19:18:56;1.80;99.90
46378;DHT22;32083;47.360;9.650;2023-02-28T19:21:25;1.80;99.90
46378;DHT22;32083;47.360;9.650;2023-02-28T19:24:00;1.60;99.90
46378;DHT22;32083;47.360;9.650;2023-02-28T19:26:27;1.60;99.90
46378;DHT22;32083;47.360;9.650;2023-02-28T19:28:53;1.60;99.90
46378;DHT22;32083;47.360;9.650;2023-02-28T19:31:25;1.60;99.90
46378;DHT22;32083;47.360;9.650;2023-02-28T19:33:54;1.60;99.90
46378;DHT22;32083;47.360;9.650;2023-02-28T19:36:20;1.60;99.90
46378;DHT22;32083;47.360;9.650;2023-02-28T19:38:47;1.70;99.90
46378;DHT22;32083;47.360;9.650;2023-02-28T19:41:14;1.60;99.90
46378;DHT22;32083;47.360;9.650;2023-02-28T19:43:40;1.70;99.90
46378;DHT22;32083;47.360;9.650;2023-02-28T19:46:07;1.60;99.90
46378;DHT22;32083;47.360;9.650;2023-02-28T19:48:34;1.60;99.90
46378;DHT22;32083;47.360;9.650;2023-02-28T19:51:06;1.70;99.90
46378;DHT22;32083;47.360;9.650;2023-02-28T19:53:34;1.60;99.90
46378;DHT22;32083;47.360;9.650;2023-02-28T19:56:00;1.60;99.90
46378;DHT22;32083;47.360;9.650;2023-02-28T19:58:26;1.70;99.90
46378;DHT22;32083;47.360;9.650;2023-02-28T20:00:52;1.70;99.90
46378;DHT22;32083;47.360;9.650;2023-02-28T20:03:18;1.60;99.90